TimeCST,TemperatureF,Dew PointF,Humidity,Sea Level PressureIn,VisibilityMPH,Wind Direction,Wind SpeedMPH,Gust SpeedMPH,PrecipitationIn,Events,Conditions,WindDirDegrees,DateUTC
12:52 AM,30.0,21.9,72,30.35,10.0,North,12.7,-,N/A,,Clear,10,2013-03-02 06:52:00
1:52 AM,28.0,21.0,75,30.38,10.0,North,6.9,-,N/A,,Clear,350,2013-03-02 07:52:00
2:52 AM,26.1,21.0,81,30.37,10.0,NNW,6.9,-,N/A,,Clear,340,2013-03-02 08:52:00
3:52 AM,25.0,19.9,81,30.37,10.0,NNW,6.9,-,N/A,,Clear,340,2013-03-02 09:52:00
4:52 AM,23.0,19.0,85,30.38,10.0,NNW,4.6,-,N/A,,Clear,330,2013-03-02 10:52:00
5:52 AM,23.0,19.0,85,30.40,9.0,NW,4.6,-,N/A,,Clear,310,2013-03-02 11:52:00
6:52 AM,24.1,19.9,84,30.40,8.0,NW,6.9,-,N/A,,Clear,320,2013-03-02 12:52:00
7:52 AM,26.1,21.0,81,30.41,7.0,NNW,8.1,-,N/A,,Clear,330,2013-03-02 13:52:00
8:52 AM,30.0,21.0,69,30.42,10.0,North,9.2,-,N/A,,Clear,360,2013-03-02 14:52:00
9:52 AM,34.0,21.0,59,30.42,10.0,North,10.4,-,N/A,,Partly Cloudy,350,2013-03-02 15:52:00
10:52 AM,37.0,21.9,54,30.40,10.0,WNW,6.9,-,N/A,,Partly Cloudy,300,2013-03-02 16:52:00
11:52 AM,41.0,21.0,45,30.39,10.0,NNW,8.1,-,N/A,,Partly Cloudy,340,2013-03-02 17:52:00
12:52 PM,44.1,21.9,42,30.34,10.0,NW,5.8,-,N/A,,Partly Cloudy,320,2013-03-02 18:52:00
1:52 PM,46.9,24.1,41,30.31,10.0,North,8.1,-,N/A,,Partly Cloudy,350,2013-03-02 19:52:00
2:52 PM,48.0,23.0,37,30.29,10.0,Calm,Calm,-,N/A,,Partly Cloudy,0,2013-03-02 20:52:00
3:52 PM,50.0,24.1,36,30.27,10.0,West,3.5,-,N/A,,Partly Cloudy,270,2013-03-02 21:52:00
4:52 PM,50.0,27.0,41,30.26,10.0,WNW,3.5,-,N/A,,Scattered Clouds,290,2013-03-02 22:52:00
5:52 PM,48.0,28.0,46,30.25,10.0,South,4.6,-,N/A,,Scattered Clouds,170,2013-03-02 23:52:00
6:52 PM,41.0,28.0,60,30.25,10.0,SE,6.9,-,N/A,,Mostly Cloudy,140,2013-03-03 00:52:00
7:52 PM,39.0,27.0,62,30.24,10.0,SE,8.1,-,N/A,,Scattered Clouds,130,2013-03-03 01:52:00
8:52 PM,37.9,27.0,65,30.23,10.0,SSE,5.8,-,N/A,,Scattered Clouds,160,2013-03-03 02:52:00
9:52 PM,36.0,26.1,67,30.24,10.0,SE,5.8,-,N/A,,Scattered Clouds,140,2013-03-03 03:52:00
10:52 PM,33.8,26.6,75,30.19,10.0,SE,6.9,-,N/A,,Scattered Clouds,130,2013-03-03 04:52:00
11:52 PM,32.0,26.6,80,30.17,10.0,South,6.9,-,N/A,,Mostly Cloudy,180,2013-03-03 05:52:00